Time,TemperatureF,DewpointF,PressureIn,WindDirection,WindDirectionDegrees,WindSpeedMPH,WindSpeedGustMPH,Humidity,HourlyPrecipIn,Conditions,Clouds,dailyrainin,SoftwareType,DateUTC
2013-08-29 00:08:00,74.1,73.5,29.98,WSW,247,0.0,-999.0,98,-99.99,,,0.00,Acu-Link.com,2013-08-29 05:08:00,
2013-08-29 00:23:00,73.9,73.3,29.98,WSW,247,0.0,-999.0,98,-99.99,,,0.00,Acu-Link.com,2013-08-29 05:23:00,
2013-08-29 00:38:00,74.3,73.7,29.98,WSW,247,0.0,-999.0,98,-99.99,,,0.00,Acu-Link.com,2013-08-29 05:38:00,
2013-08-29 00:53:00,74.7,74.1,29.97,WSW,247,0.0,-999.0,98,-99.99,,,0.00,Acu-Link.com,2013-08-29 05:53:00,
2013-08-29 01:08:00,74.7,74.1,29.97,WSW,247,1.1,-999.0,98,-99.99,,,0.00,Acu-Link.com,2013-08-29 06:08:00,
2013-08-29 01:23:00,74.8,74.2,29.97,WSW,247,0.0,-999.0,98,-99.99,,,0.00,Acu-Link.com,2013-08-29 06:23:00,
2013-08-29 01:38:00,74.5,73.9,29.97,WSW,247,0.0,-999.0,98,-99.99,,,0.00,Acu-Link.com,2013-08-29 06:38:00,
2013-08-29 01:53:00,74.3,73.7,29.97,WSW,247,0.0,-999.0,98,-99.99,,,0.00,Acu-Link.com,2013-08-29 06:53:00,
2013-08-29 02:08:00,73.9,73.3,29.97,WSW,247,0.0,-999.0,98,-99.99,,,0.00,Acu-Link.com,2013-08-29 07:08:00,
2013-08-29 02:23:00,73.4,72.8,29.97,WSW,247,0.0,-999.0,98,-99.99,,,0.00,Acu-Link.com,2013-08-29 07:23:00,
2013-08-29 02:39:00,73.0,72.4,29.97,WSW,247,0.0,-999.0,98,-99.99,,,0.00,Acu-Link.com,2013-08-29 07:39:00,
2013-08-29 02:54:00,73.0,72.4,29.97,WSW,247,0.0,-999.0,98,-99.99,,,0.00,Acu-Link.com,2013-08-29 07:54:00,
2013-08-29 03:09:00,73.0,72.4,29.97,WSW,247,0.0,-999.0,98,-99.99,,,0.00,Acu-Link.com,2013-08-29 08:09:00,
2013-08-29 03:24:00,73.0,72.4,29.97,WSW,247,0.0,-999.0,98,-99.99,,,0.00,Acu-Link.com,2013-08-29 08:24:00,
2013-08-29 03:39:00,74.7,74.1,29.97,SW,225,3.2,-999.0,98,-99.99,,,0.00,Acu-Link.com,2013-08-29 08:39:00,
2013-08-29 03:55:00,77.5,76.9,29.98,SW,225,2.7,-999.0,98,-99.99,,,0.00,Acu-Link.com,2013-08-29 08:55:00,
2013-08-29 04:10:00,77.9,77.3,29.97,WSW,247,3.2,-999.0,98,-99.99,,,0.00,Acu-Link.com,2013-08-29 09:10:00,
2013-08-29 04:25:00,78.4,77.8,29.98,West,270,3.2,-999.0,98,-99.99,,,0.00,Acu-Link.com,2013-08-29 09:25:00,
2013-08-29 04:40:00,78.8,78.2,29.98,West,270,7.8,-999.0,98,-99.99,,,0.00,Acu-Link.com,2013-08-29 09:40:00,
2013-08-29 04:55:00,79.0,78.4,29.98,West,270,3.7,-999.0,98,-99.99,,,0.00,Acu-Link.com,2013-08-29 09:55:00,
2013-08-29 05:10:00,78.6,78.0,29.98,WNW,292,3.2,-999.0,98,-99.99,,,0.00,Acu-Link.com,2013-08-29 10:10:00,
2013-08-29 05:25:00,78.1,77.5,29.99,West,270,6.3,-999.0,98,-99.99,,,0.00,Acu-Link.com,2013-08-29 10:25:00,
2013-08-29 05:41:00,78.1,77.5,29.99,West,270,2.7,-999.0,98,-99.99,,,0.00,Acu-Link.com,2013-08-29 10:41:00,
2013-08-29 05:56:00,77.4,76.8,29.99,West,270,3.7,-999.0,98,-99.99,,,0.00,Acu-Link.com,2013-08-29 10:56:00,
2013-08-29 06:11:00,77.4,76.8,29.99,West,270,3.7,-999.0,98,-99.99,,,0.00,Acu-Link.com,2013-08-29 11:11:00,
2013-08-29 06:26:00,77.4,76.8,30.00,West,270,1.7,-999.0,98,-99.99,,,0.00,Acu-Link.com,2013-08-29 11:26:00,
2013-08-29 06:41:00,77.0,76.4,30.01,West,270,2.7,-999.0,98,-99.99,,,0.00,Acu-Link.com,2013-08-29 11:41:00,
2013-08-29 06:56:00,76.8,76.2,30.02,West,270,3.2,-999.0,98,-99.99,,,0.00,Acu-Link.com,2013-08-29 11:56:00,
2013-08-29 07:11:00,77.0,76.4,30.02,West,270,3.2,-999.0,98,-99.99,,,0.00,Acu-Link.com,2013-08-29 12:11:00,
2013-08-29 07:26:00,76.8,76.2,30.02,West,270,2.7,-999.0,98,-99.99,,,0.00,Acu-Link.com,2013-08-29 12:26:00,
2013-08-29 07:41:00,78.3,77.7,30.02,WNW,292,2.7,-999.0,98,-99.99,,,0.00,Acu-Link.com,2013-08-29 12:41:00,
2013-08-29 07:57:00,79.7,79.1,30.01,West,270,2.7,-999.0,98,-99.99,,,0.00,Acu-Link.com,2013-08-29 12:57:00,
2013-08-29 08:12:00,81.3,80.7,30.01,West,270,3.7,-999.0,98,-99.99,,,0.00,Acu-Link.com,2013-08-29 13:12:00,
2013-08-29 08:27:00,82.6,82.0,30.01,NW,315,5.8,-999.0,98,-99.99,,,0.00,Acu-Link.com,2013-08-29 13:27:00,
2013-08-29 08:42:00,83.8,83.2,30.01,WNW,292,5.8,-999.0,98,-99.99,,,0.00,Acu-Link.com,2013-08-29 13:42:00,
2013-08-29 08:57:00,85.8,85.2,30.01,NW,315,4.7,-999.0,98,-99.99,,,0.00,Acu-Link.com,2013-08-29 13:57:00,
2013-08-29 09:12:00,87.3,86.7,30.01,NW,315,4.7,-999.0,98,-99.99,,,0.00,Acu-Link.com,2013-08-29 14:12:00,
2013-08-29 09:27:00,88.3,87.7,30.02,West,270,4.7,-999.0,98,-99.99,,,0.00,Acu-Link.com,2013-08-29 14:27:00,
2013-08-29 09:42:00,90.1,89.5,30.01,West,270,6.8,-999.0,98,-99.99,,,0.00,Acu-Link.com,2013-08-29 14:42:00,
2013-08-29 09:57:00,92.1,91.4,30.02,NW,315,8.3,-999.0,98,-99.99,,,0.00,Acu-Link.com,2013-08-29 14:57:00,
2013-08-29 10:13:00,93.4,92.7,30.02,West,270,6.3,-999.0,98,-99.99,,,0.00,Acu-Link.com,2013-08-29 15:13:00,
2013-08-29 10:28:00,94.1,93.4,30.02,WNW,292,4.2,-999.0,98,-99.99,,,0.00,Acu-Link.com,2013-08-29 15:28:00,
2013-08-29 10:43:00,95.2,91.4,30.02,West,270,3.7,-999.0,89,-99.99,,,0.00,Acu-Link.com,2013-08-29 15:43:00,
2013-08-29 10:58:00,96.6,89.8,30.01,North,0,6.3,-999.0,81,-99.99,,,0.00,Acu-Link.com,2013-08-29 15:58:00,
2013-08-29 11:13:00,97.5,89.0,30.01,ESE,112,4.2,-999.0,77,-99.99,,,0.00,Acu-Link.com,2013-08-29 16:13:00,
2013-08-29 11:28:00,98.6,86.6,30.01,SW,225,4.2,-999.0,69,-99.99,,,0.00,Acu-Link.com,2013-08-29 16:28:00,
2013-08-29 11:43:00,100.2,83.2,30.00,West,270,8.9,-999.0,59,-99.99,,,0.00,Acu-Link.com,2013-08-29 16:43:00,
2013-08-29 11:59:00,98.2,81.4,29.99,SSW,202,8.9,-999.0,59,-99.99,,,0.00,Acu-Link.com,2013-08-29 16:59:00,
2013-08-29 12:14:00,100.0,81.4,30.01,SSW,202,5.8,-999.0,56,-99.99,,,0.00,Acu-Link.com,2013-08-29 17:14:00,
2013-08-29 12:29:00,100.0,78.0,29.99,ESE,112,5.8,-999.0,50,-99.99,,,0.00,Acu-Link.com,2013-08-29 17:29:00,
2013-08-29 12:44:00,99.7,76.5,29.98,NE,45,2.7,-999.0,48,-99.99,,,0.00,Acu-Link.com,2013-08-29 17:44:00,
2013-08-29 12:59:00,102.0,77.2,29.98,SSW,202,5.8,-999.0,46,-99.99,,,0.00,Acu-Link.com,2013-08-29 17:59:00,
2013-08-29 13:14:00,102.0,75.2,29.96,South,180,7.8,-999.0,43,-99.99,,,0.00,Acu-Link.com,2013-08-29 18:14:00,
2013-08-29 13:29:00,102.2,74.7,29.95,WSW,247,6.3,-999.0,42,-99.99,,,0.00,Acu-Link.com,2013-08-29 18:29:00,
2013-08-29 13:44:00,102.4,75.6,29.95,SSE,157,4.2,-999.0,43,-99.99,,,0.00,Acu-Link.com,2013-08-29 18:44:00,
2013-08-29 14:00:00,101.1,73.7,29.95,SSE,157,6.3,-999.0,42,-99.99,,,0.00,Acu-Link.com,2013-08-29 19:00:00,
2013-08-29 14:15:00,99.3,72.8,29.94,SSW,202,5.8,-999.0,43,-99.99,,,0.00,Acu-Link.com,2013-08-29 19:15:00,
2013-08-29 14:30:00,101.8,73.6,29.93,SW,225,3.2,-999.0,41,-99.99,,,0.00,Acu-Link.com,2013-08-29 19:30:00,
2013-08-29 14:45:00,102.6,74.3,29.93,SW,225,3.7,-999.0,41,-99.99,,,0.00,Acu-Link.com,2013-08-29 19:45:00,
2013-08-29 15:00:00,104.4,74.4,29.92,South,180,2.7,-999.0,39,-99.99,,,0.00,Acu-Link.com,2013-08-29 20:00:00,
2013-08-29 15:15:00,104.5,73.7,29.91,South,180,9.4,-999.0,38,-99.99,,,0.00,Acu-Link.com,2013-08-29 20:15:00,
2013-08-29 15:30:00,104.5,72.9,29.90,East,90,8.3,-999.0,37,-99.99,,,0.00,Acu-Link.com,2013-08-29 20:30:00,
2013-08-29 15:46:00,102.7,72.1,29.90,South,180,8.3,-999.0,38,-99.99,,,0.00,Acu-Link.com,2013-08-29 20:46:00,
2013-08-29 16:01:00,101.7,71.3,29.89,SSE,157,3.2,-999.0,38,-99.99,,,0.00,Acu-Link.com,2013-08-29 21:01:00,
2013-08-29 16:16:00,102.2,70.1,29.89,SSW,202,4.7,-999.0,36,-99.99,,,0.00,Acu-Link.com,2013-08-29 21:16:00,
2013-08-29 16:31:00,102.7,69.7,29.88,SW,225,6.3,-999.0,35,-99.99,,,0.00,Acu-Link.com,2013-08-29 21:31:00,
2013-08-29 16:46:00,103.3,70.2,29.87,SE,135,5.8,-999.0,35,-99.99,,,0.00,Acu-Link.com,2013-08-29 21:46:00,
2013-08-29 17:01:00,102.6,69.6,29.87,SE,135,9.4,-999.0,35,-99.99,,,0.00,Acu-Link.com,2013-08-29 22:01:00,
2013-08-29 17:17:00,102.0,69.1,29.87,East,90,6.3,-999.0,35,-99.99,,,0.00,Acu-Link.com,2013-08-29 22:17:00,
2013-08-29 17:32:00,101.8,68.9,29.86,SE,135,4.2,-999.0,35,-99.99,,,0.00,Acu-Link.com,2013-08-29 22:32:00,
2013-08-29 17:47:00,102.2,68.4,29.86,NNE,22,1.7,-999.0,34,-99.99,,,0.00,Acu-Link.com,2013-08-29 22:47:00,
2013-08-29 18:02:00,101.3,66.8,29.86,SSE,157,4.7,-999.0,33,-99.99,,,0.00,Acu-Link.com,2013-08-29 23:02:00,
2013-08-29 18:17:00,104.0,67.3,29.86,East,90,5.3,-999.0,31,-99.99,,,0.00,Acu-Link.com,2013-08-29 23:17:00,
2013-08-29 18:32:00,103.6,66.0,29.87,SSW,202,3.7,-999.0,30,-99.99,,,0.00,Acu-Link.com,2013-08-29 23:32:00,
2013-08-29 18:48:00,102.4,65.0,29.88,ESE,112,4.7,-999.0,30,-99.99,,,0.00,Acu-Link.com,2013-08-29 23:48:00,
2013-08-29 19:03:00,100.6,64.4,29.89,South,180,2.2,-999.0,31,-99.99,,,0.00,Acu-Link.com,2013-08-30 00:03:00,
2013-08-29 19:18:00,99.5,64.3,29.90,South,180,1.7,-999.0,32,-99.99,,,0.00,Acu-Link.com,2013-08-30 00:18:00,
2013-08-29 19:33:00,98.1,64.0,29.91,SSE,157,0.0,-999.0,33,-99.99,,,0.00,Acu-Link.com,2013-08-30 00:33:00,
2013-08-29 19:48:00,96.4,65.8,29.91,SW,225,0.0,-999.0,37,-99.99,,,0.00,Acu-Link.com,2013-08-30 00:48:00,
2013-08-29 20:03:00,93.2,67.3,29.92,SW,225,0.0,-999.0,43,-99.99,,,0.00,Acu-Link.com,2013-08-30 01:03:00,
2013-08-29 20:18:00,90.1,67.7,29.93,SW,225,0.0,-999.0,48,-99.99,,,0.00,Acu-Link.com,2013-08-30 01:18:00,
2013-08-29 20:33:00,87.6,67.8,29.93,SW,225,0.0,-999.0,52,-99.99,,,0.00,Acu-Link.com,2013-08-30 01:33:00,
2013-08-29 20:49:00,86.0,68.4,29.93,SW,225,0.0,-999.0,56,-99.99,,,0.00,Acu-Link.com,2013-08-30 01:49:00,
2013-08-29 21:04:00,84.4,69.9,29.92,SW,225,0.0,-999.0,62,-99.99,,,0.00,Acu-Link.com,2013-08-30 02:04:00,
2013-08-29 21:19:00,83.1,70.5,29.93,SW,225,0.0,-999.0,66,-99.99,,,0.00,Acu-Link.com,2013-08-30 02:19:00,
2013-08-29 21:34:00,82.0,71.6,29.94,SW,225,0.0,-999.0,71,-99.99,,,0.00,Acu-Link.com,2013-08-30 02:34:00,
2013-08-29 21:49:00,81.0,72.7,29.94,SW,225,0.0,-999.0,76,-99.99,,,0.00,Acu-Link.com,2013-08-30 02:49:00,
2013-08-29 22:04:00,80.4,74.0,29.94,SW,225,0.0,-999.0,81,-99.99,,,0.00,Acu-Link.com,2013-08-30 03:04:00,
2013-08-29 22:19:00,79.9,75.0,29.93,SW,225,0.0,-999.0,85,-99.99,,,0.00,Acu-Link.com,2013-08-30 03:19:00,
2013-08-29 22:34:00,79.3,76.4,29.93,SW,225,0.0,-999.0,91,-99.99,,,0.00,Acu-Link.com,2013-08-30 03:34:00,
2013-08-29 22:50:00,79.0,78.4,29.92,SW,225,0.0,-999.0,98,-99.99,,,0.00,Acu-Link.com,2013-08-30 03:50:00,
2013-08-29 23:05:00,78.3,77.7,29.92,SW,225,0.0,-999.0,98,-99.99,,,0.00,Acu-Link.com,2013-08-30 04:05:00,
2013-08-29 23:20:00,77.9,77.3,29.92,SW,225,0.0,-999.0,98,-99.99,,,0.00,Acu-Link.com,2013-08-30 04:20:00,
2013-08-29 23:35:00,77.4,76.8,29.93,SW,225,2.2,-999.0,98,-99.99,,,0.00,Acu-Link.com,2013-08-30 04:35:00,
2013-08-29 23:50:00,76.8,76.2,29.92,SW,225,2.7,-999.0,98,-99.99,,,0.00,Acu-Link.com,2013-08-30 04:50:00,